Terminal Aerodrome Forecast
Issued by NWS Brownsville, TX

Home | Current Version | Previous Version | Text Only | Print | Product List | Glossary On
Versions: 1 2 3 4 5 6 7 8 9 10 11 12 13 14 15 16 17 18 19 20 21 22 23 24 25 26 27 28
000
FTUS44 KBRO 181700
TAFMFE
TAF
KMFE 181734Z 1818/1918 26006KT 6SM BR VCSH SCT012 BKN030 OVC050
      TEMPO 1818/1821 6SM -RA BKN015
     FM190300 16006KT 6SM BR BKN025
     FM191000 16006KT 5SM BR VCSH BKN008
     FM191500 19008KT 6SM BR VCSH OVC018=

USA.gov is the U.S. government's official web portal to all federal, state and local government web resources and services.